Main page
METAR-TAF:

METAR-TAF

Airports :

São Paulo–Congonhas Airport

São Paulo, São Paulo, Brazil

latitude: 23-37S, longitude: 046-39W, elevation: 803 m

Current weather observation

The report was made 21 minutes ago, at 17:00 UTC
Wind 6 kt from the South/Southwest
Temperature 26°C
Humidity 45%
Pressure 1013 hPa
Visibility 10 km or more
Scattered clouds at a height of 4700 ft

METAR: SBSP 251700Z 21006KT 9999 SCT047 26/13 Q1013

Time: 14:21 (17:21 UTC)

Forecast

The report was made 17 hours and 13 minutes ago, at 00:08 UTC
Forecast valid from 25 at 06 UTC to 25 at 18 UTC
Wind 8 kt from the South
Visibility 10 km or more
Broken clouds at a height of 1500 ft
Probability 30%
from 25 at 07 UTC to 25 at 11 UTC
Visibility: 5000 m
Broken clouds at a height of 800 ft
mist
Becoming
from 25 at 11 UTC to 25 at 13 UTC
Scattered clouds at a height of 2500 ft

TAF: SBSP 250008Z 2506/2518 17008KT 9999 BKN015 TN18/2509Z TX27/2517Z PROB30 2507/2511 5000 BR BKN008 BECMG 2511/2513 SCT025 RMK PGN

Weather observations and forecasts of more than 4000 airports (METAR and TAF reports).

The available stations are represented by yellow and red dots on the map.

Hover mouse over dot to see the name of the station.

Then click to see weather observations and forecasts.

To change the map : click on the green buttons with a black cross to zoom in, on the green button with a dash to zoom out, or on the green arrows for adjacent maps.


METAR-TAF: